This is the latest recevied weather packets stored in our database for station/object DC1NF-7. If no packets are shown the sender has not sent any weather packets the latest 10 day(s).
| Time | Temp. | Humidity | Pressure | Rain* | Wind** | Luminosity | Snow |
|---|---|---|---|---|---|---|---|
| 1777679171 | 8.89° C | 74% | 1025 hPa | 0 mm | - | 0 W/m² | - |
| 1777678567 | 8.33° C | 75% | 1025.2 hPa | 0 mm | - | 0 W/m² | - |
| 1777677966 | 8.33° C | 76% | 1025.1 hPa | 0 mm | - | 0 W/m² | - |
| 1777677359 | 8.89° C | 74% | 1025.1 hPa | 0 mm | - | 0 W/m² | - |
| 1777676760 | 9.44° C | 71% | 1025.2 hPa | 0 mm | - | 0 W/m² | - |
| 1777676155 | 10° C | 70% | 1025.3 hPa | 0 mm | - | 0 W/m² | - |
| 1777675549 | 10° C | 69% | 1025.3 hPa | 0 mm | - | 0 W/m² | - |
| 1777674945 | 10.56° C | 67% | 1025.3 hPa | 0 mm | - | 0 W/m² | - |
| 1777674351 | 11.11° C | 65% | 1025.3 hPa | 0 mm | - | 0 W/m² | - |
| 1777673737 | 11.67° C | 63% | 1025.3 hPa | 0 mm | - | 0 W/m² | - |
| 1777673132 | 12.22° C | 62% | 1025.2 hPa | 0 mm | - | 0 W/m² | - |
| 1777672528 | 12.22° C | 61% | 1025.2 hPa | 0 mm | - | 0 W/m² | - |
| 1777671924 | 12.22° C | 61% | 1025.2 hPa | 0 mm | - | 0 W/m² | - |
| 1777671320 | 12.22° C | 62% | 1025.2 hPa | 0 mm | - | 0 W/m² | - |
| 1777670720 | 12.78° C | 60% | 1025.1 hPa | 0 mm | - | 0 W/m² | - |
| 1777670177 | 13.33° C | 58% | 1025.1 hPa | 0 mm | - | 0 W/m² | - |
| 1777669570 | 12.78° C | 58% | 1025.2 hPa | 0 mm | - | 0 W/m² | - |
| 1777668966 | 12.78° C | 60% | 1025.1 hPa | 0 mm | - | 0 W/m² | - |
| 1777668364 | 12.78° C | 63% | 1025.2 hPa | 0 mm | - | 0 W/m² | - |
| 1777667761 | 13.33° C | 61% | 1025.1 hPa | 0 mm | - | 0 W/m² | - |
| 1777667155 | 13.89° C | 57% | 1025.1 hPa | 0 mm | - | 0 W/m² | - |
| 1777666560 | 13.89° C | 55% | 1025.1 hPa | 0 mm | - | 0 W/m² | - |
| 1777665949 | 14.44° C | 53% | 1025.2 hPa | 0 mm | - | 0 W/m² | - |
| 1777665346 | 15° C | 51% | 1025.1 hPa | 0 mm | - | 0 W/m² | - |
| 1777664743 | 15.56° C | 49% | 1025 hPa | 0 mm | - | 0 W/m² | - |
* Rain latest hour (hover to see other rain measurements)
** Current wind speed in m/s (hover to see current wind gust speed)